createdAt,value
2022-11-12T00:00:15.652Z,12.88
2022-11-12T00:05:35.734Z,12.55
2022-11-12T00:10:55.764Z,13.30
2022-11-12T00:16:15.902Z,14.48
2022-11-12T00:21:35.879Z,14.60
2022-11-12T00:26:56.193Z,15.18
2022-11-12T00:32:16.531Z,15.88
2022-11-12T00:37:36.429Z,15.15
2022-11-12T00:42:56.769Z,15.63
2022-11-12T00:48:16.850Z,15.57
2022-11-12T00:53:37.034Z,15.93
2022-11-12T00:58:58.009Z,15.70
2022-11-12T01:04:17.815Z,15.60
2022-11-12T01:09:37.946Z,14.85
2022-11-12T01:14:58.339Z,15.23
2022-11-12T01:20:18.458Z,15.93
2022-11-12T01:25:38.570Z,14.82
2022-11-12T01:31:09.138Z,15.48
2022-11-12T01:36:33.545Z,14.85
2022-11-12T01:41:53.780Z,15.70
2022-11-12T01:47:26.832Z,14.68
2022-11-12T01:52:51.905Z,13.93
2022-11-12T01:58:15.537Z,15.70
2022-11-12T02:03:35.354Z,14.93
2022-11-12T02:08:56.351Z,16.23
2022-11-12T02:14:16.269Z,14.70
2022-11-12T02:19:37.718Z,15.63
2022-11-12T02:24:58.540Z,16.02
2022-11-12T02:30:20.162Z,16.38
2022-11-12T02:35:40.215Z,17.70
2022-11-12T02:41:00.107Z,17.98
2022-11-12T02:46:20.400Z,17.23
2022-11-12T02:51:40.270Z,16.90
2022-11-12T02:57:00.548Z,16.70
2022-11-12T03:02:20.890Z,16.50
2022-11-12T03:07:40.891Z,15.80
2022-11-12T03:13:01.716Z,16.95
2022-11-12T03:18:21.635Z,15.87
2022-11-12T03:23:41.763Z,14.98
2022-11-12T03:29:02.002Z,16.70
2022-11-12T03:34:22.257Z,14.73
2022-11-12T03:39:42.333Z,15.20
2022-11-12T03:45:02.671Z,15.20
2022-11-12T03:50:25.082Z,14.95
2022-11-12T03:55:45.710Z,14.80
2022-11-12T04:01:05.911Z,14.57
2022-11-12T04:06:44.175Z,14.93
2022-11-12T04:12:24.639Z,13.88
2022-11-12T04:18:02.839Z,14.63
2022-11-12T04:23:22.942Z,14.80
2022-11-12T04:29:05.285Z,14.52
2022-11-12T04:34:30.803Z,16.15
2022-11-12T04:39:52.423Z,14.60
2022-11-12T04:45:12.351Z,16.30
2022-11-12T04:50:33.003Z,16.60
2022-11-12T04:55:55.488Z,16.53
2022-11-12T05:01:15.477Z,16.27
2022-11-12T05:06:54.667Z,16.58
2022-11-12T05:12:14.985Z,16.38
2022-11-12T05:17:35.005Z,16.70
2022-11-12T05:23:06.242Z,17.30
2022-11-12T05:33:47.606Z,17.95
2022-11-12T05:39:07.863Z,17.95
2022-11-12T05:44:28.001Z,18.75
2022-11-12T05:49:48.216Z,19.10
2022-11-12T05:55:08.811Z,19.30
2022-11-12T06:00:28.966Z,18.20
2022-11-12T06:05:49.196Z,19.90
2022-11-12T06:11:09.535Z,19.92
2022-11-12T06:16:29.867Z,19.92
2022-11-12T06:21:49.874Z,18.25
2022-11-12T06:27:10.449Z,18.23
2022-11-12T06:32:30.705Z,17.00
2022-11-12T06:37:50.746Z,17.15
2022-11-12T06:43:11.079Z,16.10
2022-11-12T06:48:31.376Z,16.45
2022-11-12T06:53:51.839Z,16.02
2022-11-12T06:59:11.720Z,15.53
2022-11-12T07:04:31.947Z,15.23
2022-11-12T07:09:52.204Z,16.00
2022-11-12T07:15:12.501Z,15.35
2022-11-12T07:20:32.634Z,16.38
2022-11-12T07:26:04.531Z,15.77
2022-11-12T07:31:25.817Z,15.15
2022-11-12T07:36:46.001Z,14.95
2022-11-12T07:42:06.197Z,15.13
2022-11-12T07:47:26.703Z,15.02
2022-11-12T07:52:46.828Z,13.87
2022-11-12T07:58:07.058Z,13.63
2022-11-12T08:03:27.170Z,14.48
2022-11-12T08:08:47.552Z,13.95
2022-11-12T08:14:07.910Z,13.35
2022-11-12T08:19:27.947Z,13.70
2022-11-12T08:24:47.964Z,13.93
2022-11-12T08:30:08.859Z,14.02
2022-11-12T08:35:29.979Z,14.07
2022-11-12T08:40:50.263Z,13.40
2022-11-12T08:46:10.630Z,13.27
2022-11-12T08:51:30.690Z,13.63
2022-11-12T08:56:51.362Z,13.13
2022-11-12T09:02:12.870Z,13.13
2022-11-12T09:07:49.462Z,13.68
2022-11-12T09:13:11.176Z,13.73
2022-11-12T09:18:32.276Z,13.43
2022-11-12T09:23:52.399Z,13.18
2022-11-12T09:29:12.411Z,13.27
2022-11-12T09:34:32.766Z,12.65
2022-11-12T09:39:53.034Z,13.10
2022-11-12T09:45:20.042Z,12.05
2022-11-12T09:50:48.552Z,11.70
2022-11-12T09:56:13.240Z,11.68
2022-11-12T10:01:44.414Z,10.68
2022-11-12T10:07:42.264Z,10.55
2022-11-12T10:13:32.660Z,10.25
2022-11-12T10:19:11.188Z,11.13
2022-11-12T10:24:36.217Z,10.07
2022-11-12T10:30:05.919Z,10.27
2022-11-12T10:35:26.328Z,10.27
2022-11-12T10:40:46.457Z,10.82
2022-11-12T10:46:19.481Z,9.27
2022-11-12T10:51:40.346Z,10.40
2022-11-12T10:57:17.936Z,9.60
2022-11-12T11:02:45.547Z,8.48
2022-11-12T11:08:05.698Z,8.50
2022-11-12T11:13:28.422Z,7.25
2022-11-12T11:18:55.545Z,8.15
2022-11-12T11:24:35.590Z,7.40
2022-11-12T11:30:02.413Z,6.53
2022-11-12T11:35:43.748Z,6.47
2022-11-12T11:41:34.453Z,6.03
2022-11-12T11:47:17.100Z,5.85
2022-11-12T11:52:55.670Z,5.72
2022-11-12T11:58:34.650Z,5.93
2022-11-12T12:04:23.463Z,5.82
2022-11-12T12:10:09.327Z,5.70
2022-11-12T12:15:56.351Z,6.20
2022-11-12T12:21:21.979Z,4.97
2022-11-12T12:26:48.029Z,4.80
2022-11-12T12:32:23.102Z,5.75
2022-11-12T12:37:54.027Z,8.38
2022-11-12T12:43:31.445Z,7.78
2022-11-12T12:48:54.304Z,7.82
2022-11-12T12:54:36.221Z,7.25
2022-11-12T13:00:35.336Z,6.30
2022-11-12T13:06:18.164Z,6.93
2022-11-12T13:11:59.504Z,7.32
2022-11-12T13:17:43.286Z,7.15
2022-11-12T13:23:08.684Z,7.22
2022-11-12T13:28:29.222Z,7.00
2022-11-12T13:39:16.383Z,6.55
2022-11-12T13:44:36.547Z,7.50
2022-11-12T13:50:01.142Z,7.07
2022-11-12T13:55:23.052Z,7.45
2022-11-12T14:00:52.043Z,6.93
2022-11-12T14:06:40.902Z,6.97
2022-11-12T14:12:13.901Z,7.28
2022-11-12T14:17:46.861Z,8.15
2022-11-12T14:23:24.512Z,7.68
2022-11-12T14:28:44.973Z,6.65
2022-11-12T14:34:32.859Z,6.97
2022-11-12T14:39:53.112Z,6.60
2022-11-12T14:45:16.540Z,7.07
2022-11-12T14:50:40.743Z,7.53
2022-11-12T14:56:06.878Z,8.20
2022-11-12T15:02:20.627Z,9.02
2022-11-12T15:07:50.075Z,8.57
2022-11-12T15:13:17.731Z,8.27
2022-11-12T15:18:38.533Z,9.75
2022-11-12T15:24:15.272Z,9.43
2022-11-12T15:29:36.009Z,10.32
2022-11-12T15:34:56.824Z,10.02
2022-11-12T15:40:19.191Z,11.57
2022-11-12T15:45:38.980Z,10.45
2022-11-12T15:50:59.393Z,12.00
2022-11-12T15:56:22.126Z,13.32
2022-11-12T16:01:43.111Z,12.70
2022-11-12T16:07:05.612Z,12.57
2022-11-12T16:12:26.867Z,13.02
2022-11-12T16:17:47.952Z,13.20
2022-11-12T16:23:08.037Z,13.35
2022-11-12T16:28:28.352Z,14.25
2022-11-12T16:33:48.805Z,14.15
2022-11-12T16:39:12.103Z,14.07
2022-11-12T16:44:32.040Z,14.18
2022-11-12T16:49:52.527Z,14.80
2022-11-12T16:55:13.105Z,14.85
2022-11-12T17:00:33.255Z,14.02
2022-11-12T17:05:53.162Z,14.55
2022-11-12T17:11:15.185Z,13.98
2022-11-12T17:16:35.415Z,14.60
2022-11-12T17:21:55.788Z,14.50
2022-11-12T17:27:16.164Z,15.50
2022-11-12T17:32:36.180Z,16.40
2022-11-12T17:37:56.367Z,17.38
2022-11-12T17:43:16.651Z,16.85
2022-11-12T17:48:37.875Z,17.80
2022-11-12T17:53:58.131Z,18.15
2022-11-12T17:59:18.398Z,21.27
2022-11-12T18:04:40.720Z,20.98
2022-11-12T18:10:01.035Z,20.13
2022-11-12T18:15:20.874Z,20.45
2022-11-12T18:20:42.417Z,21.50
2022-11-12T18:26:02.665Z,20.95
2022-11-12T18:31:23.714Z,20.67
2022-11-12T18:36:44.000Z,22.05
2022-11-12T18:42:04.467Z,25.52
2022-11-12T18:47:24.679Z,27.92
2022-11-12T18:52:45.110Z,27.95
2022-11-12T18:58:05.991Z,27.63
2022-11-12T19:03:26.573Z,31.35
2022-11-12T19:08:47.113Z,39.33
2022-11-12T19:14:07.250Z,28.42
2022-11-12T19:19:27.127Z,25.20
2022-11-12T19:24:48.456Z,23.70
2022-11-12T19:30:09.187Z,23.15
2022-11-12T19:35:29.438Z,21.73
2022-11-12T19:40:49.544Z,22.98
2022-11-12T19:46:11.145Z,23.42
2022-11-12T19:51:31.270Z,23.05
2022-11-12T19:56:51.645Z,23.15
2022-11-12T20:02:12.831Z,24.40
2022-11-12T20:07:33.287Z,25.13
2022-11-12T20:12:54.554Z,26.95
2022-11-12T20:23:35.266Z,26.75
2022-11-12T20:28:55.434Z,28.08
2022-11-12T20:34:15.692Z,30.25
2022-11-12T20:39:35.920Z,29.33
2022-11-12T20:44:55.739Z,28.45
2022-11-12T20:50:16.247Z,29.15
2022-11-12T20:55:35.949Z,29.00
2022-11-12T21:00:56.187Z,27.77
2022-11-12T21:06:19.384Z,27.15
2022-11-12T21:11:39.694Z,26.88
2022-11-12T21:16:59.930Z,25.05
2022-11-12T21:22:20.087Z,24.52
2022-11-12T21:27:40.239Z,24.58
2022-11-12T21:33:00.621Z,23.95
2022-11-12T21:38:23.054Z,23.42
2022-11-12T21:43:44.510Z,20.63
2022-11-12T21:54:24.668Z,20.83
2022-11-12T21:59:45.235Z,21.45
2022-11-12T22:05:05.468Z,22.73
2022-11-12T22:10:25.631Z,25.92
2022-11-12T22:15:45.869Z,24.60
2022-11-12T22:21:09.779Z,23.13
2022-11-12T22:26:29.787Z,23.27
2022-11-12T22:31:49.739Z,22.17
2022-11-12T22:37:09.939Z,20.52
2022-11-12T22:42:30.118Z,20.20
2022-11-12T22:47:50.275Z,17.30
2022-11-12T22:53:10.474Z,18.90
2022-11-12T22:58:31.153Z,19.83
2022-11-12T23:03:55.727Z,20.73
2022-11-12T23:09:17.168Z,19.10
2022-11-12T23:19:57.755Z,19.50
2022-11-12T23:25:17.694Z,19.92
2022-11-12T23:30:38.242Z,18.83
2022-11-12T23:36:09.359Z,20.27
2022-11-12T23:41:29.647Z,20.07
2022-11-12T23:46:49.808Z,20.15
2022-11-12T23:52:09.826Z,19.77
2022-11-12T23:57:30.063Z,19.27
